Time;durP1;ratioP1;P1;durP2;ratioP2;P2;SDS_P1;SDS_P2;PMS_P1;PMS_P2;Temp;Humidity;BMP_temperature;BMP_pressure;BME280_temperature;BME280_humidity;BME280_pressure;Samples;Min_cycle;Max_cycle;Signal;HPM_P1;HPM_P2
2021/12/28 00:00:13;;;;;;;23.47;18.90;;;;;;;6.74;100.00;98496.44;5010469;28;20180;-64
2021/12/28 00:02:40;;;;;;;20.17;18.00;;;;;;;6.83;100.00;98489.13;5043423;28;20223;-64
2021/12/28 00:05:09;;;;;;;19.90;17.80;;;;;;;6.57;100.00;98482.22;5029434;28;20222;-64
2021/12/28 00:07:34;;;;;;;23.47;18.33;;;;;;;6.49;100.00;98481.03;5029385;28;20197;-63
2021/12/28 00:09:59;;;;;;;20.60;17.63;;;;;;;6.50;100.00;98492.91;5029486;28;20185;-63
2021/12/28 00:12:28;;;;;;;21.77;17.57;;;;;;;6.55;100.00;98489.16;5036016;28;20646;-64
2021/12/28 00:15:18;;;;;;;24.50;18.10;;;;;;;6.50;100.00;98483.53;5033367;28;20209;-64
2021/12/28 00:17:59;;;;;;;21.73;16.83;;;;;;;6.63;100.00;98491.22;5022164;28;20278;-64
2021/12/28 00:20:35;;;;;;;21.70;17.93;;;;;;;6.58;100.00;98491.50;5024733;28;20575;-64
2021/12/28 00:23:03;;;;;;;24.63;17.67;;;;;;;6.57;100.00;98500.09;5032347;28;20665;-64
2021/12/28 00:25:28;;;;;;;20.70;18.30;;;;;;;6.48;100.00;98497.31;5013167;28;20236;-64
2021/12/28 00:27:53;;;;;;;24.00;18.40;;;;;;;6.53;100.00;98485.06;5013380;28;20202;-64
2021/12/28 00:30:20;;;;;;;20.63;17.93;;;;;;;6.51;100.00;98479.22;4985481;28;20605;-64
2021/12/28 00:32:53;;;;;;;22.67;18.83;;;;;;;6.46;100.00;98482.06;5026427;28;20185;-64
2021/12/28 00:35:21;;;;;;;22.97;17.47;;;;;;;6.44;100.00;98474.50;5012760;28;20325;-63
2021/12/28 00:37:47;;;;;;;20.03;17.13;;;;;;;6.50;100.00;98473.31;5013298;28;20236;-64
2021/12/28 00:40:12;;;;;;;22.73;17.90;;;;;;;6.55;100.00;98473.81;5004521;28;20261;-64
2021/12/28 00:42:37;;;;;;;20.23;16.53;;;;;;;6.41;100.00;98472.16;5026744;28;20182;-64
2021/12/28 00:45:04;;;;;;;22.90;16.60;;;;;;;6.45;100.00;98465.94;5012919;28;20166;-64
2021/12/28 00:47:29;;;;;;;23.80;17.73;;;;;;;6.68;100.00;98466.19;5012889;28;20276;-64
2021/12/28 00:49:56;;;;;;;20.50;17.10;;;;;;;6.70;100.00;98472.03;5013164;28;20320;-64
2021/12/28 00:52:21;;;;;;;21.30;16.90;;;;;;;6.58;100.00;98463.41;5018195;28;20698;-64
2021/12/28 00:54:47;;;;;;;22.03;16.77;;;;;;;6.73;100.00;98464.13;5012674;28;20221;-64
2021/12/28 00:57:12;;;;;;;20.90;16.20;;;;;;;6.81;100.00;98465.38;5012827;28;20208;-64
2021/12/28 00:59:37;;;;;;;23.47;16.00;;;;;;;6.78;100.00;98451.91;5013002;28;20519;-65
2021/12/28 01:02:03;;;;;;;21.73;16.23;;;;;;;6.80;100.00;98454.34;5017839;28;20766;-64
2021/12/28 01:04:28;;;;;;;23.20;14.90;;;;;;;6.73;100.00;98453.13;5012503;28;20717;-64
2021/12/28 01:06:53;;;;;;;19.17;13.97;;;;;;;6.60;100.00;98436.03;5012684;28;20193;-64
2021/12/28 01:09:19;;;;;;;20.37;12.80;;;;;;;6.65;100.00;98434.91;5012631;28;20617;-64
2021/12/28 01:11:44;;;;;;;17.67;12.63;;;;;;;6.53;100.00;98441.63;5015705;28;20225;-64
2021/12/28 01:14:10;;;;;;;17.57;11.93;;;;;;;6.59;100.00;98448.91;5014536;28;20560;-65
2021/12/28 01:16:35;;;;;;;19.53;11.40;;;;;;;6.68;100.00;98445.75;5012432;28;20182;-64
2021/12/28 01:19:01;;;;;;;24.03;12.50;;;;;;;6.85;100.00;98447.19;5012432;28;20174;-64
2021/12/28 01:21:26;;;;;;;19.30;10.97;;;;;;;7.06;100.00;98456.94;5013064;28;20785;-64
2021/12/28 01:23:52;;;;;;;16.70;10.17;;;;;;;7.05;100.00;98456.09;5015186;28;20273;-64
2021/12/28 01:26:17;;;;;;;18.60;10.17;;;;;;;6.93;100.00;98437.31;5011678;28;20179;-65
2021/12/28 01:28:42;;;;;;;15.83;9.33;;;;;;;7.10;100.00;98446.38;5011541;28;20190;-64
2021/12/28 01:31:08;;;;;;;16.60;8.80;;;;;;;7.17;100.00;98444.25;5009846;28;20214;-64
2021/12/28 01:33:33;;;;;;;19.23;9.30;;;;;;;7.33;100.00;98438.09;5018960;28;20691;-64
2021/12/28 01:35:58;;;;;;;15.63;8.03;;;;;;;7.38;100.00;98433.47;5011845;28;20315;-64
2021/12/28 01:38:24;;;;;;;20.20;8.43;;;;;;;7.39;100.00;98425.72;5012203;28;20194;-64
2021/12/28 01:40:50;;;;;;;20.50;7.60;;;;;;;7.46;100.00;98427.88;5008007;28;20225;-64
2021/12/28 01:43:21;;;;;;;19.07;7.60;;;;;;;7.37;100.00;98413.97;5020846;28;20193;-65
2021/12/28 01:45:53;;;;;;;21.03;6.57;;;;;;;7.38;100.00;98418.13;5011340;28;20214;-64
2021/12/28 01:48:34;;;;;;;23.50;6.60;;;;;;;7.29;100.00;98422.13;5011777;28;20198;-64
2021/12/28 01:51:04;;;;;;;19.57;6.83;;;;;;;7.22;100.00;98410.72;5009328;28;20228;-65
2021/12/28 01:53:30;;;;;;;22.53;7.37;;;;;;;7.45;100.00;98405.75;5018766;28;20190;-64
2021/12/28 01:55:57;;;;;;;19.73;6.43;;;;;;;7.26;100.00;98405.25;5011441;28;20629;-63
2021/12/28 01:58:22;;;;;;;13.17;5.37;;;;;;;7.24;100.00;98404.56;5011627;28;20187;-66
2021/12/28 02:00:50;;;;;;;26.40;7.07;;;;;;;7.32;100.00;98405.75;5007526;28;20654;-65
2021/12/28 02:03:18;;;;;;;21.00;6.37;;;;;;;7.36;100.00;98404.66;5020149;28;20182;-65
2021/12/28 02:05:44;;;;;;;27.00;6.53;;;;;;;7.39;100.00;98401.88;5010832;28;20536;-65
2021/12/28 02:08:12;;;;;;;23.20;6.67;;;;;;;7.37;100.00;98401.16;5010561;28;20214;-67
2021/12/28 02:10:39;;;;;;;24.30;7.97;;;;;;;7.41;100.00;98400.03;5022977;28;20231;-66
2021/12/28 02:13:05;;;;;;;14.07;6.43;;;;;;;7.40;100.00;98406.06;5041435;28;20619;-65
2021/12/28 02:15:31;;;;;;;16.63;7.47;;;;;;;7.29;100.00;98395.75;5030368;28;20202;-66
2021/12/28 02:17:57;;;;;;;19.80;7.90;;;;;;;7.43;100.00;98391.31;5030638;28;20194;-66
2021/12/28 02:20:22;;;;;;;20.07;7.10;;;;;;;7.36;100.00;98387.53;5022985;28;20214;-66
2021/12/28 02:22:47;;;;;;;21.73;7.43;;;;;;;7.46;100.00;98389.47;5033017;28;20541;-66
2021/12/28 02:25:14;;;;;;;22.73;7.97;;;;;;;7.31;100.00;98391.34;5010492;28;20640;-66
2021/12/28 02:27:40;;;;;;;18.67;7.27;;;;;;;7.53;100.00;98388.13;5010542;28;20265;-67
2021/12/28 02:30:12;;;;;;;13.10;6.37;;;;;;;7.69;100.00;98377.63;5001016;28;20699;-65
2021/12/28 02:32:39;;;;;;;15.97;6.90;;;;;;;7.64;100.00;98374.56;5024787;28;20167;-66
2021/12/28 02:35:08;;;;;;;18.83;6.83;;;;;;;7.37;100.00;98362.81;5010592;28;20190;-66
2021/12/28 02:37:33;;;;;;;20.57;6.93;;;;;;;7.19;100.00;98354.63;5010281;28;20677;-66
2021/12/28 02:39:59;;;;;;;16.97;6.53;;;;;;;7.21;100.00;98356.16;5010606;28;20249;-65
2021/12/28 02:42:24;;;;;;;13.37;6.87;;;;;;;7.17;100.00;98344.53;5009359;28;20321;-65
2021/12/28 02:45:07;;;;;;;15.20;6.37;;;;;;;7.30;100.00;98349.59;5022062;28;20231;-65
2021/12/28 02:47:33;;;;;;;13.50;6.27;;;;;;;7.30;100.00;98349.59;5030448;28;20679;-66
2021/12/28 02:49:59;;;;;;;18.27;6.03;;;;;;;7.35;100.00;98355.22;5030355;28;20561;-66
2021/12/28 02:52:24;;;;;;;18.13;6.80;;;;;;;7.29;100.00;98342.03;5035780;28;20236;-65
2021/12/28 02:54:49;;;;;;;16.20;7.10;;;;;;;7.40;100.00;98329.31;5030220;28;20275;-65
2021/12/28 02:57:15;;;;;;;16.63;6.27;;;;;;;7.45;100.00;98326.44;5030250;28;20201;-65
2021/12/28 02:59:48;;;;;;;18.57;6.80;;;;;;;7.33;100.00;98321.28;5030224;28;20655;-65
2021/12/28 03:02:14;;;;;;;20.40;6.50;;;;;;;7.29;100.00;98322.38;5035252;28;20250;-65
2021/12/28 03:04:40;;;;;;;19.80;6.50;;;;;;;7.29;100.00;98319.81;5029966;28;20189;-65
2021/12/28 03:07:06;;;;;;;14.53;6.23;;;;;;;7.35;100.00;98318.59;5030091;28;20290;-65
2021/12/28 03:09:31;;;;;;;18.30;6.83;;;;;;;7.27;100.00;98317.38;5030226;28;20170;-65
2021/12/28 03:11:57;;;;;;;19.10;5.80;;;;;;;7.30;100.00;98311.22;5034597;28;20221;-65
2021/12/28 03:14:22;;;;;;;19.57;5.80;;;;;;;7.18;100.00;98307.81;5030210;28;20883;-65
2021/12/28 03:16:48;;;;;;;16.73;5.97;;;;;;;7.35;100.00;98300.69;5030035;28;20223;-65
2021/12/28 03:19:13;;;;;;;17.50;5.63;;;;;;;7.55;100.00;98301.84;5029596;28;20580;-66
2021/12/28 03:21:40;;;;;;;15.77;5.60;;;;;;;7.58;100.00;98299.88;5030987;28;20216;-66
2021/12/28 03:24:06;;;;;;;15.20;6.27;;;;;;;7.58;100.00;98288.84;5012865;28;20171;-66
2021/12/28 03:26:32;;;;;;;15.27;5.47;;;;;;;7.42;100.00;98289.09;5009842;28;20187;-66
2021/12/28 03:28:57;;;;;;;19.13;5.77;;;;;;;7.50;100.00;98278.31;5010181;28;20706;-64
2021/12/28 03:31:23;;;;;;;16.63;5.03;;;;;;;7.35;100.00;98277.66;5010211;28;20272;-65
2021/12/28 03:33:52;;;;;;;11.93;5.63;;;;;;;7.26;100.00;98274.81;5014619;28;20268;-65
2021/12/28 03:36:20;;;;;;;21.67;6.27;;;;;;;7.28;100.00;98264.47;5010218;28;20696;-66
2021/12/28 03:38:46;;;;;;;13.60;5.53;;;;;;;7.34;100.00;98276.84;5010125;28;20234;-66
2021/12/28 03:41:12;;;;;;;15.30;5.93;;;;;;;7.31;100.00;98269.41;5008598;28;20610;-65
2021/12/28 03:43:41;;;;;;;15.40;5.60;;;;;;;7.20;100.00;98264.22;5015734;28;20171;-65
2021/12/28 03:46:07;;;;;;;14.70;6.00;;;;;;;7.38;100.00;98262.09;5010085;28;20174;-64
2021/12/28 03:48:34;;;;;;;9.80;5.80;;;;;;;7.40;100.00;98266.16;5009199;28;20194;-65
2021/12/28 03:51:00;;;;;;;19.60;7.43;;;;;;;7.50;100.00;98261.22;5007192;28;20225;-65
2021/12/28 03:53:25;;;;;;;17.37;5.17;;;;;;;7.52;100.00;98264.50;5017560;28;20232;-65
2021/12/28 03:55:51;;;;;;;14.27;5.07;;;;;;;7.58;100.00;98255.56;5009638;28;20178;-64
2021/12/28 03:58:16;;;;;;;11.43;5.23;;;;;;;7.70;100.00;98251.31;5009830;28;20344;-65
2021/12/28 04:00:47;;;;;;;16.50;5.30;;;;;;;7.73;100.00;98251.09;4995016;28;20400;-65
2021/12/28 04:03:13;;;;;;;14.70;5.37;;;;;;;7.71;100.00;98252.94;5019376;28;20163;-65
2021/12/28 04:05:39;;;;;;;13.73;4.80;;;;;;;7.58;100.00;98251.25;5008508;28;20181;-66
2021/12/28 04:08:05;;;;;;;18.90;5.27;;;;;;;7.49;100.00;98246.00;5009967;28;20198;-66
2021/12/28 04:10:38;;;;;;;12.80;4.70;;;;;;;7.64;100.00;98247.47;5003552;28;20240;-66
2021/12/28 04:13:04;;;;;;;12.80;4.63;;;;;;;7.55;100.00;98251.50;5008154;28;20245;-65
2021/12/28 04:15:29;;;;;;;15.93;5.67;;;;;;;7.45;100.00;98249.69;5002555;28;20272;-65
2021/12/28 04:17:54;;;;;;;13.63;5.00;;;;;;;7.27;100.00;98240.66;5021540;28;20218;-65
2021/12/28 04:20:22;;;;;;;17.37;5.13;;;;;;;7.38;100.00;98249.31;5001827;28;20518;-65
2021/12/28 04:22:48;;;;;;;14.37;5.00;;;;;;;7.32;100.00;98237.78;5022317;28;20181;-65
2021/12/28 04:25:16;;;;;;;13.70;4.63;;;;;;;7.20;100.00;98248.88;5009354;28;20167;-65
2021/12/28 04:27:42;;;;;;;19.27;4.63;;;;;;;7.28;100.00;98249.13;5009135;28;20236;-65
2021/12/28 04:30:10;;;;;;;16.57;4.50;;;;;;;7.42;100.00;98251.53;4981366;28;20175;-66
2021/12/28 04:32:36;;;;;;;17.10;4.73;;;;;;;7.43;100.00;98249.81;5023903;28;20295;-66
2021/12/28 04:35:01;;;;;;;22.90;4.80;;;;;;;7.33;100.00;98249.66;5009185;28;20242;-66
2021/12/28 04:37:26;;;;;;;20.63;4.47;;;;;;;7.21;100.00;98250.50;5009546;28;20201;-65
2021/12/28 04:39:52;;;;;;;15.23;4.33;;;;;;;7.17;100.00;98249.06;5009303;28;20182;-65
2021/12/28 04:42:18;;;;;;;17.77;4.20;;;;;;;7.01;100.00;98254.44;5014742;28;20218;-65
2021/12/28 04:44:45;;;;;;;17.47;4.27;;;;;;;7.02;100.00;98251.81;5009163;28;20218;-65
2021/12/28 04:47:11;;;;;;;17.93;4.00;;;;;;;7.06;100.00;98247.28;5009597;28;20293;-65
2021/12/28 04:49:36;;;;;;;16.70;4.50;;;;;;;6.97;100.00;98251.31;5009425;28;20243;-65
2021/12/28 04:52:02;;;;;;;13.13;4.13;;;;;;;6.88;100.00;98245.06;5014385;28;20327;-65
2021/12/28 04:54:28;;;;;;;14.90;3.93;;;;;;;6.84;100.00;98243.66;5009003;28;20198;-65
2021/12/28 04:56:53;;;;;;;14.90;3.97;;;;;;;6.77;100.00;98248.38;5009179;28;20182;-65
2021/12/28 04:59:18;;;;;;;19.03;4.17;;;;;;;6.90;100.00;98250.09;5009849;28;20171;-65
2021/12/28 05:01:44;;;;;;;10.67;3.87;;;;;;;6.72;100.00;98250.44;5015738;28;20230;-64
2021/12/28 05:04:09;;;;;;;24.00;4.50;;;;;;;6.78;100.00;98252.56;5014878;28;20636;-64
2021/12/28 05:06:36;;;;;;;17.40;3.63;;;;;;;6.83;100.00;98252.25;5012717;28;20277;-65
2021/12/28 05:09:05;;;;;;;14.87;3.87;;;;;;;6.80;100.00;98242.25;5012707;28;20209;-65
2021/12/28 05:11:33;;;;;;;17.10;4.27;;;;;;;6.76;100.00;98243.34;5013548;28;20261;-64
2021/12/28 05:13:59;;;;;;;11.83;3.73;;;;;;;6.74;100.00;98247.78;5015905;28;20261;-64
2021/12/28 05:16:28;;;;;;;14.13;3.23;;;;;;;6.79;100.00;98246.50;5012831;28;20189;-64
2021/12/28 05:18:54;;;;;;;16.03;3.50;;;;;;;6.67;100.00;98239.69;5012370;28;20313;-64
2021/12/28 05:21:19;;;;;;;12.83;3.33;;;;;;;6.66;100.00;98242.34;5012220;28;20333;-64
2021/12/28 05:23:45;;;;;;;14.93;3.33;;;;;;;6.62;100.00;98232.34;5017522;28;20268;-64
2021/12/28 05:26:10;;;;;;;15.63;3.37;;;;;;;6.59;100.00;98226.63;5011885;28;20188;-64
2021/12/28 05:28:35;;;;;;;18.10;4.53;;;;;;;6.57;100.00;98219.09;5010725;28;20202;-64
2021/12/28 05:31:00;;;;;;;13.67;3.80;;;;;;;6.55;100.00;98220.09;5010028;28;20239;-63
2021/12/28 05:33:26;;;;;;;15.03;3.63;;;;;;;6.63;100.00;98208.41;5019912;28;20184;-64
2021/12/28 05:35:51;;;;;;;14.50;3.23;;;;;;;6.59;100.00;98204.44;5011975;28;20789;-63
2021/12/28 05:38:16;;;;;;;13.50;3.70;;;;;;;6.55;100.00;98194.53;5012048;28;20198;-64
2021/12/28 05:40:42;;;;;;;12.13;3.30;;;;;;;6.55;100.00;98191.97;5008709;28;20722;-63
2021/12/28 05:43:07;;;;;;;11.87;3.47;;;;;;;6.58;100.00;98192.59;5030577;28;20182;-63
2021/12/28 05:45:33;;;;;;;12.37;3.10;;;;;;;6.45;100.00;98181.59;5013583;28;20173;-62
2021/12/28 05:47:58;;;;;;;16.27;3.47;;;;;;;6.58;100.00;98186.69;5010634;28;20276;-63
2021/12/28 05:50:24;;;;;;;12.20;3.00;;;;;;;6.48;100.00;98178.03;5003306;28;20256;-62
2021/12/28 05:52:49;;;;;;;11.33;2.83;;;;;;;6.55;100.00;98174.94;5024482;28;20186;-62
2021/12/28 05:55:14;;;;;;;12.17;3.20;;;;;;;6.60;100.00;98166.97;5011729;28;20244;-62
2021/12/28 05:57:39;;;;;;;13.87;3.23;;;;;;;6.56;100.00;98166.34;5011719;28;20545;-63
2021/12/28 06:00:07;;;;;;;10.93;3.13;;;;;;;6.70;100.00;98173.06;5002458;28;20210;-62
2021/12/28 06:02:33;;;;;;;14.57;2.80;;;;;;;6.65;100.00;98177.69;5026165;28;20363;-62
2021/12/28 06:04:58;;;;;;;10.50;2.93;;;;;;;6.61;100.00;98176.25;5011446;28;20288;-62
2021/12/28 06:07:27;;;;;;;10.80;2.93;;;;;;;6.53;100.00;98174.22;5011627;28;20221;-62
2021/12/28 06:09:55;;;;;;;11.33;2.93;;;;;;;6.52;100.00;98172.56;5011351;28;20182;-62
2021/12/28 06:12:21;;;;;;;12.60;3.00;;;;;;;6.45;100.00;98171.38;5016885;28;20283;-62
2021/12/28 06:14:47;;;;;;;10.17;3.30;;;;;;;6.52;100.00;98170.03;5011321;28;20671;-62
2021/12/28 06:17:12;;;;;;;13.97;3.50;;;;;;;6.52;100.00;98167.47;5011336;28;20263;-62
2021/12/28 06:19:37;;;;;;;11.40;3.20;;;;;;;6.68;100.00;98171.53;5011589;28;20245;-62
2021/12/28 06:22:03;;;;;;;13.20;3.40;;;;;;;6.57;100.00;98164.59;5016635;28;20227;-63
2021/12/28 06:24:29;;;;;;;11.00;3.33;;;;;;;6.42;100.00;98167.28;5011159;28;20182;-63
2021/12/28 06:26:54;;;;;;;12.17;3.90;;;;;;;6.52;100.00;98169.22;5010997;28;20241;-62
2021/12/28 06:29:20;;;;;;;12.90;3.20;;;;;;;6.43;100.00;98166.38;5012184;28;20174;-62
2021/12/28 06:31:45;;;;;;;13.53;3.97;;;;;;;6.46;100.00;98162.78;5014364;28;20228;-62
2021/12/28 06:34:11;;;;;;;11.47;3.83;;;;;;;6.43;100.00;98168.91;5013137;28;20714;-62
2021/12/28 06:36:37;;;;;;;12.80;3.50;;;;;;;6.38;100.00;98163.31;5011107;28;20197;-62
2021/12/28 06:39:03;;;;;;;13.27;3.87;;;;;;;6.45;100.00;98169.63;5010973;28;20182;-62
2021/12/28 06:41:28;;;;;;;14.33;4.17;;;;;;;6.36;100.00;98174.56;5012060;28;20237;-62
2021/12/28 06:43:54;;;;;;;15.90;4.10;;;;;;;6.38;100.00;98170.16;5015062;28;20191;-63
2021/12/28 06:46:19;;;;;;;9.83;4.23;;;;;;;6.34;100.00;98163.63;5010905;28;20186;-63
2021/12/28 06:48:44;;;;;;;13.60;4.60;;;;;;;6.36;100.00;98164.34;5011002;28;20194;-62
2021/12/28 06:51:11;;;;;;;11.53;3.97;;;;;;;6.35;100.00;98158.44;5009580;28;20241;-62
2021/12/28 06:53:37;;;;;;;13.63;4.53;;;;;;;6.45;100.00;98153.50;5016959;28;20807;-63
2021/12/28 06:56:03;;;;;;;12.13;4.07;;;;;;;6.41;100.00;98146.97;5010580;28;20185;-62
2021/12/28 06:58:29;;;;;;;16.17;4.87;;;;;;;6.51;100.00;98150.53;5010999;28;20221;-62
2021/12/28 07:00:54;;;;;;;13.17;4.80;;;;;;;6.55;100.00;98156.22;5007634;28;20233;-62
2021/12/28 07:03:20;;;;;;;14.53;5.00;;;;;;;6.43;100.00;98145.94;5019106;28;20174;-62
2021/12/28 07:05:45;;;;;;;21.17;6.73;;;;;;;6.60;100.00;98146.53;5010476;28;20196;-62
2021/12/28 07:08:10;;;;;;;17.17;5.93;;;;;;;6.62;100.00;98142.09;5010482;28;20194;-62
2021/12/28 07:10:36;;;;;;;15.23;6.13;;;;;;;6.64;100.00;98150.50;5002279;28;20255;-61
2021/12/28 07:13:01;;;;;;;17.17;5.50;;;;;;;6.60;100.00;98143.97;5021300;28;20181;-61
2021/12/28 07:15:26;;;;;;;11.73;5.97;;;;;;;6.68;100.00;98143.44;5011093;28;20671;-61
2021/12/28 07:17:52;;;;;;;12.87;5.83;;;;;;;6.81;100.00;98144.22;5014670;28;20321;-61
2021/12/28 07:20:17;;;;;;;19.40;5.87;;;;;;;6.82;100.00;98137.34;5005857;28;20181;-62
2021/12/28 07:22:43;;;;;;;14.60;5.87;;;;;;;6.89;100.00;98139.34;5030128;28;20223;-62
2021/12/28 07:25:09;;;;;;;13.17;4.67;;;;;;;6.89;100.00;98131.69;5013215;28;20260;-61
2021/12/28 07:27:35;;;;;;;10.17;4.67;;;;;;;6.93;100.00;98130.56;5014141;28;20702;-62
2021/12/28 07:30:03;;;;;;;8.43;4.60;;;;;;;6.82;100.00;98119.47;5014436;28;20224;-61
2021/12/28 07:32:28;;;;;;;13.77;5.10;;;;;;;6.76;100.00;98128.34;5003537;28;20207;-61
2021/12/28 07:34:53;;;;;;;13.47;6.10;;;;;;;6.66;100.00;98123.09;5006323;28;20287;-61
2021/12/28 07:37:19;;;;;;;17.53;5.93;;;;;;;6.81;100.00;98130.59;5009218;28;20205;-61
2021/12/28 07:39:44;;;;;;;14.57;5.60;;;;;;;6.95;100.00;98127.91;5006449;28;20269;-61
2021/12/28 07:42:09;;;;;;;15.00;6.27;;;;;;;6.94;100.00;98132.16;5003448;28;20300;-61
2021/12/28 07:44:36;;;;;;;10.47;5.63;;;;;;;7.07;100.00;98118.50;5008339;28;20206;-61
2021/12/28 07:47:04;;;;;;;15.00;5.30;;;;;;;7.14;100.00;98116.34;5009298;28;20274;-61
2021/12/28 07:49:30;;;;;;;10.87;5.27;;;;;;;6.94;100.00;98128.81;5009397;28;20174;-61
2021/12/28 07:51:55;;;;;;;19.20;5.57;;;;;;;7.07;100.00;98129.56;5005400;28;20658;-61
2021/12/28 07:54:21;;;;;;;11.53;5.83;;;;;;;7.04;100.00;98123.88;5004817;28;20292;-61
2021/12/28 07:56:46;;;;;;;13.33;5.37;;;;;;;7.17;100.00;98126.34;5009236;28;20181;-61
2021/12/28 07:59:11;;;;;;;14.63;5.40;;;;;;;7.01;100.00;98122.34;5006236;28;20190;-61
2021/12/28 08:01:37;;;;;;;10.23;5.70;;;;;;;6.99;100.00;98119.06;4978555;28;20244;-61
2021/12/28 08:04:02;;;;;;;13.67;6.10;;;;;;;6.99;100.00;98126.75;4991573;28;20187;-61
2021/12/28 08:06:28;;;;;;;9.13;5.70;;;;;;;7.13;100.00;98132.59;4993745;28;20182;-61
2021/12/28 08:08:53;;;;;;;8.87;5.57;;;;;;;7.21;100.00;98130.31;4990812;28;20691;-61
2021/12/28 08:11:19;;;;;;;9.37;5.73;;;;;;;7.18;100.00;98140.75;5001292;28;21114;-61
2021/12/28 08:13:44;;;;;;;14.67;5.63;;;;;;;7.26;100.00;98146.94;5026457;28;20252;-62
2021/12/28 08:16:09;;;;;;;9.17;5.33;;;;;;;7.40;100.00;98135.72;5012464;28;20290;-61
2021/12/28 08:18:35;;;;;;;7.73;4.33;;;;;;;7.19;100.00;98129.59;5022420;28;20214;-61
2021/12/28 08:21:00;;;;;;;9.27;4.60;;;;;;;7.29;100.00;98135.69;5018751;28;20213;-62
2021/12/28 08:23:26;;;;;;;14.40;5.00;;;;;;;7.33;100.00;98132.00;5022468;28;20691;-62
2021/12/28 08:25:51;;;;;;;10.40;4.90;;;;;;;7.40;100.00;98133.16;5020030;28;20178;-62
2021/12/28 08:28:16;;;;;;;19.27;6.33;;;;;;;7.53;100.00;98132.25;5012915;28;20557;-62
2021/12/28 08:30:42;;;;;;;11.73;5.07;;;;;;;7.58;100.00;98128.44;4984334;28;20226;-62
2021/12/28 08:33:09;;;;;;;6.60;4.23;;;;;;;7.23;100.00;98129.28;5025609;28;20555;-62
2021/12/28 08:35:36;;;;;;;12.03;4.80;;;;;;;7.01;100.00;98140.25;5023184;28;20211;-62
2021/12/28 08:38:01;;;;;;;8.93;3.97;;;;;;;7.27;100.00;98142.66;5021675;28;20596;-62
2021/12/28 08:40:27;;;;;;;3.77;3.33;;;;;;;7.21;100.00;98132.88;5017689;28;20263;-61
2021/12/28 08:42:52;;;;;;;5.50;3.10;;;;;;;7.17;100.00;98136.56;5033713;28;20651;-62
2021/12/28 08:45:18;;;;;;;5.20;3.27;;;;;;;7.29;100.00;98140.00;5011605;28;20174;-62
2021/12/28 08:47:46;;;;;;;5.73;2.70;;;;;;;7.24;100.00;98142.88;5013215;28;20195;-62
2021/12/28 08:50:12;;;;;;;6.17;3.33;;;;;;;7.19;100.00;98130.41;5004421;28;20190;-62
2021/12/28 08:52:38;;;;;;;2.53;2.30;;;;;;;7.17;100.00;98132.28;5026769;28;20175;-61
2021/12/28 08:55:05;;;;;;;4.63;3.40;;;;;;;7.38;100.00;98129.91;5012728;28;20202;-62
2021/12/28 08:57:31;;;;;;;2.87;2.20;;;;;;;7.35;100.00;98131.88;5012917;28;20566;-61
2021/12/28 08:59:56;;;;;;;4.37;2.70;;;;;;;7.32;100.00;98139.75;5011758;28;20266;-62
2021/12/28 09:02:21;;;;;;;3.77;2.77;;;;;;;7.42;100.00;98145.84;5018390;28;20290;-62
2021/12/28 09:04:46;;;;;;;3.47;2.67;;;;;;;7.53;100.00;98143.31;5012672;28;20313;-62
2021/12/28 09:07:13;;;;;;;4.50;2.70;;;;;;;7.61;100.00;98150.44;5012673;28;20239;-62
2021/12/28 09:09:39;;;;;;;2.97;2.60;;;;;;;7.72;100.00;98149.66;5012742;28;20233;-62
2021/12/28 09:12:05;;;;;;;3.97;2.63;;;;;;;7.58;100.00;98143.78;5017913;28;20225;-62
2021/12/28 09:14:32;;;;;;;3.97;2.70;;;;;;;7.59;100.00;98145.44;5011791;28;20202;-62
2021/12/28 09:16:58;;;;;;;2.57;2.37;;;;;;;7.72;100.00;98147.88;5012431;28;20660;-61
2021/12/28 09:19:23;;;;;;;3.47;2.13;;;;;;;7.71;100.00;98146.25;5012681;28;20250;-62
2021/12/28 09:21:48;;;;;;;4.57;2.33;;;;;;;7.77;100.00;98151.88;5016064;28;20312;-62
2021/12/28 09:24:14;;;;;;;3.60;2.30;;;;;;;7.87;100.00;98156.16;5013916;28;20258;-61
2021/12/28 09:26:39;;;;;;;4.00;2.43;;;;;;;7.79;100.00;98150.81;5012361;28;20648;-62
2021/12/28 09:29:04;;;;;;;2.37;2.10;;;;;;;7.79;100.00;98153.38;5012260;28;20268;-62
2021/12/28 09:31:30;;;;;;;3.93;2.30;;;;;;;7.77;100.00;98162.91;5013629;28;20253;-62
2021/12/28 09:33:55;;;;;;;3.80;2.50;;;;;;;8.01;100.00;98162.00;5015980;28;20302;-64
2021/12/28 09:36:20;;;;;;;3.43;2.50;;;;;;;8.14;100.00;98161.94;5012251;28;20656;-62
2021/12/28 09:38:46;;;;;;;3.80;2.20;;;;;;;8.33;100.00;98171.56;5012378;28;20198;-61
2021/12/28 09:41:13;;;;;;;2.93;2.30;;;;;;;8.40;100.00;98167.63;5011182;28;20635;-62
2021/12/28 09:43:40;;;;;;;3.63;3.07;;;;;;;8.46;100.00;98174.88;5010764;28;20189;-62
2021/12/28 09:46:05;;;;;;;4.27;2.60;;;;;;;8.54;100.00;98164.81;5011379;28;20700;-62
2021/12/28 09:48:31;;;;;;;3.10;2.70;;;;;;;8.49;100.00;98166.13;5012086;28;20206;-62
2021/12/28 09:50:57;;;;;;;2.73;2.43;;;;;;;8.59;100.00;98164.47;5009038;28;20734;-62
2021/12/28 09:53:23;;;;;;;3.33;2.20;;;;;;;8.56;100.00;98159.59;5019914;28;20174;-62
2021/12/28 09:55:48;;;;;;;2.77;2.17;;;;;;;8.47;100.00;98163.69;5011585;28;20616;-62
2021/12/28 09:58:13;;;;;;;3.33;2.80;;;;;;;8.61;100.00;98156.66;5011822;28;20499;-62
2021/12/28 10:00:39;;;;;;;2.50;2.00;;;;;;;8.86;100.00;98153.81;5006549;28;20340;-62
2021/12/28 10:03:05;;;;;;;2.53;2.33;;;;;;;9.11;100.00;98153.63;5022308;28;20232;-62
2021/12/28 10:05:33;;;;;;;4.43;1.90;;;;;;;9.22;100.00;98147.66;5011342;28;20651;-62
2021/12/28 10:08:01;;;;;;;4.57;2.37;;;;;;;9.30;100.00;98158.09;5011515;28;20194;-62
2021/12/28 10:10:28;;;;;;;3.43;1.90;;;;;;;9.27;100.00;98153.22;5004572;28;20304;-62
2021/12/28 10:12:57;;;;;;;7.43;2.13;;;;;;;9.33;100.00;98148.41;5023368;28;20178;-62
2021/12/28 10:15:31;;;;;;;2.10;1.70;;;;;;;9.27;100.00;98146.34;5011232;28;20292;-62
2021/12/28 10:18:00;;;;;;;3.17;1.80;;;;;;;9.32;100.00;98154.47;5011149;28;20221;-62
2021/12/28 10:20:30;;;;;;;2.50;2.00;;;;;;;9.29;100.00;98148.78;5004616;28;20236;-62
2021/12/28 10:23:02;;;;;;;2.23;1.97;;;;;;;9.42;100.00;98157.13;5023025;28;20582;-62
2021/12/28 10:25:40;;;;;;;4.27;2.03;;;;;;;9.57;100.00;98141.41;5011044;28;20182;-62
2021/12/28 10:28:09;;;;;;;3.23;2.00;;;;;;;9.49;100.00;98144.63;5011192;28;20213;-62
2021/12/28 10:30:40;;;;;;;3.03;1.70;;;;;;;9.68;100.00;98146.47;5001283;28;20226;-62
2021/12/28 10:33:11;;;;;;;2.17;1.80;;;;;;;9.87;100.00;98140.63;5015638;28;20628;-63
2021/12/28 10:35:40;;;;;;;3.80;2.27;;;;;;;10.03;100.00;98140.16;5010457;28;20588;-61
2021/12/28 10:38:09;;;;;;;2.83;1.80;;;;;;;10.22;100.00;98136.88;5010994;28;20268;-62
2021/12/28 10:40:47;;;;;;;1.77;1.67;;;;;;;10.39;100.00;98135.47;5005281;28;20230;-62
2021/12/28 10:43:15;;;;;;;3.67;2.10;;;;;;;10.36;100.00;98140.88;5020755;28;20190;-62
2021/12/28 10:45:44;;;;;;;2.23;1.60;;;;;;;10.39;100.00;98135.47;5010805;28;20193;-62
2021/12/28 10:48:12;;;;;;;2.20;1.70;;;;;;;10.27;100.00;98145.00;5010940;28;20194;-63
2021/12/28 10:50:47;;;;;;;1.60;1.30;;;;;;;10.10;100.00;98133.59;5005434;28;20229;-62
2021/12/28 10:53:32;;;;;;;2.50;1.20;;;;;;;9.91;100.00;98141.19;5020194;28;20188;-62
2021/12/28 10:55:59;;;;;;;2.13;1.80;;;;;;;10.08;100.00;98142.34;5009662;28;20171;-63
2021/12/28 10:58:28;;;;;;;1.50;1.10;;;;;;;10.13;100.00;98133.34;5005769;28;20625;-63
2021/12/28 11:00:55;;;;;;;1.63;1.37;;;;;;;10.26;100.00;98133.09;5012765;28;20218;-63
2021/12/28 11:03:26;;;;;;;1.30;1.20;;;;;;;10.29;100.00;98137.97;5027214;28;20232;-63
2021/12/28 11:05:53;;;;;;;1.37;1.27;;;;;;;10.36;100.00;98135.75;5013094;28;20201;-63
2021/12/28 11:08:20;;;;;;;2.00;1.30;;;;;;;10.17;100.00;98123.59;5013422;28;20202;-63
2021/12/28 11:10:51;;;;;;;3.00;1.50;;;;;;;10.20;100.00;98115.63;5009856;28;20225;-63
2021/12/28 11:13:20;;;;;;;1.60;1.40;;;;;;;10.35;100.00;98116.09;5020324;28;20740;-63
2021/12/28 11:15:46;;;;;;;4.30;1.50;;;;;;;10.44;100.00;98107.63;5014808;28;20233;-62
2021/12/28 11:18:34;;;;;;;1.30;1.20;;;;;;;10.26;100.00;98101.47;5012165;28;20227;-62
2021/12/28 11:21:16;;;;;;;2.33;1.57;;;;;;;10.34;100.00;98088.75;5007324;28;20271;-62
2021/12/28 11:23:43;;;;;;;1.50;1.20;;;;;;;10.27;100.00;98095.34;5025954;28;20178;-65